VLLN

Luang Namtha Airport

Luang Namtha, Lao People’s Democratic Republic
TAF VLLN 181100Z 1812/1912 24004KT 4000 TSRA SCT017 FEW023CB BKN090 TEMPO 1817/1822 3000 RA SCT010 OVC090
Issued Valid From Valid To
Sep-18 @ 11:00 UTC
(7 hours ago)
Sep-18 @ 12:00 UTC
(6 hours ago)
Sep-19 @ 12:00 UTC
(in 18 hours)
Sep-18 @ 12:00 to Sep-19 @ 12:00
TAF VLLN 181100Z 1812/1912 24004KT 4000 TSRA SCT017 FEW023CB BKN090
Wind Visibility Clouds Conditions
240° at 4 knots 4,007 meters
  • Scattered at 1,700' AGL
  • Few at 2,300' AGL
  • Broken at 9,000' AGL
  • Thunderstorm
  • Rain
Temporary Sep-18 @ 17:00 to Sep-18 @ 22:00
TEMPO 1817/1822 3000 RA SCT010 OVC090
Visibility Clouds Conditions
2,993 meters
  • Scattered at 1,000' AGL
  • Overcast at 9,000' AGL
  • Rain
TAF VLLN 181100Z 1812/1912 24004KT 4000 TSRA SCT017 FEW023CB BKN090 TEMPO 1817/1822 3000 RA SCT010 OVC090
Issued Sep-18 @ 11:00 UTC
(7 hours ago)
Valid From Sep-18 @ 12:00 UTC
(6 hours ago)
Valid To Sep-19 @ 12:00 UTC
(in 18 hours)
Sep-18 @ 12:00 - Sep-19 @ 12:00
Wind Visibility
240° at 4 knots 4,007 meters
Clouds
  • Scattered at 1,700' AGL
  • Few at 2,300' AGL
  • Broken at 9,000' AGL
Conditions
  • Thunderstorm
  • Rain
Temporary Sep-18 @ 17:00 - Sep-18 @ 22:00
Clouds
  • Scattered at 1,000' AGL
  • Overcast at 9,000' AGL
Conditions
  • Rain